createdAt,value
2022-12-31T00:01:51.111Z,100296.90
2022-12-31T00:04:21.256Z,100296.27
2022-12-31T00:06:51.541Z,100294.86
2022-12-31T00:09:22.261Z,100301.16
2022-12-31T00:11:52.849Z,100292.80
2022-12-31T00:14:23.061Z,100290.58
2022-12-31T00:16:53.691Z,100278.73
2022-12-31T00:19:24.131Z,100270.67
2022-12-31T00:21:54.092Z,100268.58
2022-12-31T00:24:24.221Z,100264.69
2022-12-31T00:26:54.285Z,100259.76
2022-12-31T00:29:25.013Z,100262.16
2022-12-31T00:31:55.091Z,100266.41
2022-12-31T00:34:25.520Z,100268.70
2022-12-31T00:36:56.017Z,100268.32
2022-12-31T00:39:26.043Z,100262.19
2022-12-31T00:41:56.689Z,100257.66
2022-12-31T00:44:27.064Z,100254.52
2022-12-31T00:46:57.228Z,100248.30
2022-12-31T00:49:27.459Z,100248.55
2022-12-31T00:52:01.041Z,100245.11
2022-12-31T00:54:31.453Z,100242.67
2022-12-31T00:57:01.783Z,100245.77
2022-12-31T00:59:32.293Z,100243.00
2022-12-31T01:02:02.832Z,100241.27
2022-12-31T01:04:33.850Z,100233.73
2022-12-31T01:07:03.990Z,100225.49
2022-12-31T01:09:34.313Z,100220.27
2022-12-31T01:12:05.374Z,100216.96
2022-12-31T01:14:35.748Z,100208.76
2022-12-31T01:17:05.844Z,100204.21
2022-12-31T01:19:36.562Z,100197.38
2022-12-31T01:22:06.876Z,100191.55
2022-12-31T01:24:37.458Z,100191.76
2022-12-31T01:27:08.389Z,100197.40
2022-12-31T01:29:38.418Z,100197.81
2022-12-31T01:32:08.697Z,100203.48
2022-12-31T01:34:39.219Z,100199.88
2022-12-31T01:37:09.850Z,100194.36
2022-12-31T01:39:40.431Z,100198.80
2022-12-31T01:42:12.105Z,100189.73
2022-12-31T01:44:54.440Z,100183.91
2022-12-31T01:47:35.182Z,100180.11
2022-12-31T01:50:10.217Z,100174.30
2022-12-31T01:52:44.114Z,100178.00
2022-12-31T01:55:19.223Z,100170.61
2022-12-31T01:57:52.459Z,100157.48
2022-12-31T02:00:23.577Z,100152.70
2022-12-31T02:02:55.008Z,100150.20
2022-12-31T02:05:30.996Z,100143.41
2022-12-31T02:08:01.486Z,100144.10
2022-12-31T02:10:32.024Z,100141.08
2022-12-31T02:13:03.002Z,100135.64
2022-12-31T02:15:39.696Z,100134.52
2022-12-31T02:18:20.643Z,100138.23
2022-12-31T02:21:20.968Z,100138.53
2022-12-31T02:24:10.783Z,100123.81
2022-12-31T02:26:58.349Z,100107.34
2022-12-31T02:29:59.102Z,100097.33
2022-12-31T02:32:43.360Z,100096.38
2022-12-31T02:35:16.910Z,100103.51
2022-12-31T02:37:52.835Z,100101.81
2022-12-31T02:40:24.247Z,100095.30
2022-12-31T02:42:55.682Z,100088.26
2022-12-31T02:45:31.825Z,100083.32
2022-12-31T02:48:33.417Z,100087.11
2022-12-31T02:51:18.936Z,100096.64
2022-12-31T02:54:11.932Z,100106.95
2022-12-31T02:56:52.143Z,100116.00
2022-12-31T02:59:44.688Z,100107.59
2022-12-31T03:02:19.277Z,100100.98
2022-12-31T03:04:53.209Z,100087.06
2022-12-31T03:07:25.391Z,100090.12
2022-12-31T03:09:56.037Z,100100.35
2022-12-31T03:12:47.696Z,100110.09
2022-12-31T03:15:21.341Z,100114.27
2022-12-31T03:18:00.575Z,100115.90
2022-12-31T03:20:51.583Z,100116.45
2022-12-31T03:23:26.577Z,100113.27
2022-12-31T03:25:57.243Z,100111.33
2022-12-31T03:28:29.560Z,100112.35
2022-12-31T03:31:01.195Z,100104.77
2022-12-31T03:33:33.779Z,100106.24
2022-12-31T03:36:06.431Z,100108.34
2022-12-31T03:38:36.905Z,100112.76
2022-12-31T03:41:10.395Z,100113.77
2022-12-31T03:43:40.839Z,100123.85
2022-12-31T03:46:12.632Z,100134.76
2022-12-31T03:48:43.066Z,100129.09
2022-12-31T03:51:13.379Z,100125.90
2022-12-31T03:53:43.599Z,100127.48
2022-12-31T03:56:13.949Z,100119.94
2022-12-31T03:58:44.108Z,100123.48
2022-12-31T04:01:14.311Z,100121.93
2022-12-31T04:03:44.831Z,100127.21
2022-12-31T04:06:15.277Z,100128.54
2022-12-31T04:08:45.770Z,100130.91
2022-12-31T04:11:20.865Z,100130.08
2022-12-31T04:13:51.763Z,100133.27
2022-12-31T04:16:22.238Z,100127.16
2022-12-31T04:18:52.073Z,100121.89
2022-12-31T04:21:22.169Z,100121.92
2022-12-31T04:23:52.747Z,100120.09
2022-12-31T04:26:23.523Z,100115.84
2022-12-31T04:28:53.617Z,100111.16
2022-12-31T04:31:24.113Z,100117.93
2022-12-31T04:33:54.426Z,100119.85
2022-12-31T04:36:24.870Z,100115.04
2022-12-31T04:38:55.862Z,100105.61
2022-12-31T04:41:26.852Z,100100.48
2022-12-31T04:43:58.967Z,100094.61
2022-12-31T04:46:32.143Z,100100.21
2022-12-31T04:49:02.645Z,100104.61
2022-12-31T04:51:33.379Z,100109.47
2022-12-31T04:54:03.845Z,100110.85
2022-12-31T04:56:36.168Z,100106.23
2022-12-31T04:59:08.472Z,100106.38
2022-12-31T05:01:39.165Z,100118.70
2022-12-31T05:04:09.731Z,100116.73
2022-12-31T05:06:40.363Z,100118.31
2022-12-31T05:09:10.662Z,100122.83
2022-12-31T05:11:40.655Z,100124.21
2022-12-31T05:14:10.914Z,100120.41
2022-12-31T05:16:41.469Z,100110.16
2022-12-31T05:19:11.519Z,100101.15
2022-12-31T05:21:41.652Z,100096.83
2022-12-31T05:24:12.080Z,100101.40
2022-12-31T05:26:42.529Z,100103.40
2022-12-31T05:29:12.703Z,100109.70
2022-12-31T05:31:42.936Z,100109.70
2022-12-31T05:34:13.351Z,100111.98
2022-12-31T05:36:43.651Z,100113.39
2022-12-31T05:39:13.841Z,100113.67
2022-12-31T05:41:44.561Z,100110.98
2022-12-31T05:44:15.162Z,100113.79
2022-12-31T05:46:46.580Z,100114.71
2022-12-31T05:49:16.736Z,100112.17
2022-12-31T05:51:47.294Z,100109.08
2022-12-31T05:54:17.312Z,100100.50
2022-12-31T05:56:47.888Z,100096.72
2022-12-31T05:59:18.223Z,100089.67
2022-12-31T06:01:48.459Z,100089.95
2022-12-31T06:04:18.925Z,100095.69
2022-12-31T06:06:49.379Z,100091.99
2022-12-31T06:09:20.200Z,100091.59
2022-12-31T06:11:51.174Z,100092.86
2022-12-31T06:14:22.207Z,100092.20
2022-12-31T06:16:52.194Z,100091.48
2022-12-31T06:19:22.610Z,100091.83
2022-12-31T06:21:52.832Z,100092.59
2022-12-31T06:24:23.240Z,100090.38
2022-12-31T06:26:53.641Z,100093.11
2022-12-31T06:29:24.061Z,100102.77
2022-12-31T06:31:54.200Z,100106.98
2022-12-31T06:34:24.753Z,100111.36
2022-12-31T06:36:55.413Z,100108.14
2022-12-31T06:39:26.028Z,100105.13
2022-12-31T06:41:56.026Z,100108.53
2022-12-31T06:44:26.350Z,100109.42
2022-12-31T06:46:56.723Z,100103.27
2022-12-31T06:49:27.139Z,100101.36
2022-12-31T06:51:57.132Z,100103.55
2022-12-31T06:54:27.311Z,100111.19
2022-12-31T06:56:59.329Z,100118.77
2022-12-31T06:59:31.278Z,100117.86
2022-12-31T07:02:14.865Z,100113.86
2022-12-31T07:05:16.876Z,100116.54
2022-12-31T07:07:59.189Z,100119.64
2022-12-31T07:10:41.901Z,100121.64
2022-12-31T07:13:36.945Z,100127.08
2022-12-31T07:16:27.667Z,100133.23
2022-12-31T07:19:12.982Z,100140.71
2022-12-31T07:21:44.442Z,100150.16
2022-12-31T07:24:17.201Z,100147.34
2022-12-31T07:27:07.833Z,100146.33
2022-12-31T07:29:52.392Z,100142.13
2022-12-31T07:32:36.877Z,100140.01
2022-12-31T07:35:17.665Z,100149.41
2022-12-31T07:37:56.207Z,100159.11
2022-12-31T07:40:35.916Z,100157.12
2022-12-31T07:43:13.715Z,100156.30
2022-12-31T07:45:49.493Z,100157.81
2022-12-31T07:48:25.510Z,100163.95
2022-12-31T07:50:58.267Z,100154.55
2022-12-31T07:53:30.226Z,100152.90
2022-12-31T07:56:02.318Z,100150.88
2022-12-31T07:58:48.281Z,100154.02
2022-12-31T08:01:29.439Z,100148.73
2022-12-31T08:04:06.413Z,100151.56
2022-12-31T08:06:45.223Z,100158.30
2022-12-31T08:09:22.780Z,100161.73
2022-12-31T08:11:58.091Z,100166.36
2022-12-31T08:14:31.182Z,100167.81
2022-12-31T08:17:02.700Z,100168.52
2022-12-31T08:19:34.818Z,100166.70
2022-12-31T08:22:35.394Z,100165.57
2022-12-31T08:25:17.480Z,100161.23
2022-12-31T08:27:57.634Z,100160.81
2022-12-31T08:30:37.043Z,100159.54
2022-12-31T08:33:14.996Z,100159.57
2022-12-31T08:35:59.393Z,100162.60
2022-12-31T08:38:37.625Z,100178.29
2022-12-31T08:41:23.796Z,100181.48
2022-12-31T08:44:05.096Z,100179.14
2022-12-31T08:46:46.918Z,100181.04
2022-12-31T08:49:18.567Z,100185.15
2022-12-31T08:51:50.417Z,100187.86
2022-12-31T08:54:23.686Z,100191.88
2022-12-31T08:57:12.674Z,100190.84
2022-12-31T08:59:50.499Z,100189.17
2022-12-31T09:02:47.858Z,100186.98
2022-12-31T09:05:24.415Z,100180.73
2022-12-31T09:08:04.672Z,100179.71
2022-12-31T09:10:44.653Z,100180.45
2022-12-31T09:13:22.073Z,100183.66
2022-12-31T09:15:59.977Z,100178.89
2022-12-31T09:18:34.688Z,100177.02
2022-12-31T09:21:06.009Z,100174.33
2022-12-31T09:23:37.658Z,100164.25
2022-12-31T09:26:19.798Z,100163.37
2022-12-31T09:29:02.013Z,100164.02
2022-12-31T09:31:39.648Z,100151.49
2022-12-31T09:34:22.340Z,100149.61
2022-12-31T09:36:57.542Z,100141.35
2022-12-31T09:39:36.739Z,100139.28
2022-12-31T09:42:43.470Z,100146.91
2022-12-31T09:45:42.638Z,100138.20
2022-12-31T09:48:43.063Z,100134.40
2022-12-31T09:51:28.550Z,100125.15
2022-12-31T09:54:29.787Z,100126.14
2022-12-31T09:57:23.546Z,100126.67
2022-12-31T10:00:00.542Z,100125.27
2022-12-31T10:02:48.508Z,100125.20
2022-12-31T10:05:41.227Z,100127.88
2022-12-31T10:08:29.702Z,100124.23
2022-12-31T10:11:06.259Z,100119.05
2022-12-31T10:13:51.740Z,100118.51
2022-12-31T10:16:48.803Z,100112.94
2022-12-31T10:19:48.126Z,100116.80
2022-12-31T10:22:43.587Z,100119.96
2022-12-31T10:25:48.143Z,100119.76
2022-12-31T10:28:31.266Z,100112.52
2022-12-31T10:31:14.427Z,100105.32
2022-12-31T10:33:53.660Z,100104.45
2022-12-31T10:36:32.622Z,100106.27
2022-12-31T10:39:23.826Z,100102.58
2022-12-31T10:42:26.437Z,100096.83
2022-12-31T10:45:27.738Z,100099.50
2022-12-31T10:48:38.762Z,100087.13
2022-12-31T10:51:39.168Z,100075.32
2022-12-31T10:54:51.128Z,100070.17
2022-12-31T10:57:52.817Z,100065.20
2022-12-31T11:00:24.079Z,100060.30
2022-12-31T11:03:29.763Z,100066.95
2022-12-31T11:06:31.890Z,100062.95
2022-12-31T11:09:46.627Z,100058.63
2022-12-31T11:12:47.515Z,100038.68
2022-12-31T11:15:52.044Z,100027.84
2022-12-31T11:18:39.178Z,100023.97
2022-12-31T11:21:28.274Z,100030.70
2022-12-31T11:24:10.860Z,100033.98
2022-12-31T11:26:56.990Z,100036.59
2022-12-31T11:29:39.344Z,100049.19
2022-12-31T11:32:17.929Z,100059.75
2022-12-31T11:34:57.185Z,100044.06
2022-12-31T11:37:45.418Z,100039.24
2022-12-31T11:40:33.020Z,100046.17
2022-12-31T11:43:15.640Z,100034.08
2022-12-31T11:46:16.190Z,100030.27
2022-12-31T11:48:58.149Z,100019.23
2022-12-31T11:51:50.205Z,100025.63
2022-12-31T11:54:39.673Z,100038.73
2022-12-31T11:57:19.108Z,100036.43
2022-12-31T11:59:50.349Z,100028.89
2022-12-31T12:02:27.737Z,100026.80
2022-12-31T12:05:08.445Z,100026.91
2022-12-31T12:07:41.581Z,100031.58
2022-12-31T12:10:24.190Z,100025.30
2022-12-31T12:12:56.133Z,100019.52
2022-12-31T12:15:30.102Z,100014.11
2022-12-31T12:18:07.129Z,100014.66
2022-12-31T12:20:40.435Z,100015.27
2022-12-31T12:23:23.851Z,100019.16
2022-12-31T12:25:54.443Z,100024.18
2022-12-31T12:28:26.386Z,100024.17
2022-12-31T12:31:00.578Z,100018.52
2022-12-31T12:33:41.922Z,100016.02
2022-12-31T12:36:15.589Z,100007.15
2022-12-31T12:38:46.125Z,99997.58
2022-12-31T12:41:25.351Z,99993.14
2022-12-31T12:44:06.403Z,99990.42
2022-12-31T12:46:48.052Z,99996.18
2022-12-31T12:49:24.531Z,99991.21
2022-12-31T12:52:22.084Z,99989.62
2022-12-31T12:55:09.381Z,99983.46
2022-12-31T12:57:46.432Z,99974.59
2022-12-31T13:00:22.543Z,99978.23
2022-12-31T13:03:15.834Z,99991.13
2022-12-31T13:06:02.892Z,99991.55
2022-12-31T13:08:49.387Z,99987.61
2022-12-31T13:11:33.030Z,99990.02
2022-12-31T13:14:11.901Z,99983.69
2022-12-31T13:16:47.454Z,99986.98
2022-12-31T13:19:27.926Z,99984.08
2022-12-31T13:22:05.188Z,99980.16
2022-12-31T13:24:52.903Z,99974.81
2022-12-31T13:27:27.860Z,99977.80
2022-12-31T13:30:02.299Z,99976.50
2022-12-31T13:32:39.262Z,99982.17
2022-12-31T13:35:23.208Z,99978.35
2022-12-31T13:38:03.376Z,99974.43
2022-12-31T13:40:46.132Z,99977.16
2022-12-31T13:43:24.057Z,99979.08
2022-12-31T13:46:03.179Z,99981.02
2022-12-31T13:48:39.872Z,99991.14
2022-12-31T13:51:19.554Z,99986.28
2022-12-31T13:53:57.702Z,99993.98
2022-12-31T13:56:36.418Z,99993.77
2022-12-31T13:59:19.689Z,99987.66
2022-12-31T14:01:55.302Z,99984.29
2022-12-31T14:04:30.823Z,99984.40
2022-12-31T14:07:07.993Z,99982.54
2022-12-31T14:09:38.559Z,99985.23
2022-12-31T14:12:22.790Z,99988.18
2022-12-31T14:15:03.472Z,99990.97
2022-12-31T14:17:42.595Z,99998.73
2022-12-31T14:20:24.887Z,100007.23
2022-12-31T14:23:06.631Z,100001.13
2022-12-31T14:25:41.664Z,100002.16
2022-12-31T14:28:20.139Z,100000.33
2022-12-31T14:30:57.180Z,100009.71
2022-12-31T14:33:40.077Z,100004.24
2022-12-31T14:36:33.842Z,100015.95
2022-12-31T14:39:19.029Z,100010.16
2022-12-31T14:42:04.275Z,100007.71
2022-12-31T14:44:53.508Z,100006.95
2022-12-31T14:47:33.872Z,100014.66
2022-12-31T14:50:12.177Z,100014.33
2022-12-31T14:52:52.901Z,100019.64
2022-12-31T14:55:29.647Z,100010.56
2022-12-31T14:58:27.723Z,100009.42
2022-12-31T15:00:57.069Z,100008.27
2022-12-31T15:03:40.009Z,100010.08
2022-12-31T15:06:41.200Z,100009.39
2022-12-31T15:09:34.772Z,100004.36
2022-12-31T15:12:21.508Z,100008.39
2022-12-31T15:15:22.797Z,100005.27
2022-12-31T15:18:03.951Z,100012.23
2022-12-31T15:20:50.138Z,100009.15
2022-12-31T15:23:24.429Z,100011.83
2022-12-31T15:26:00.967Z,100011.95
2022-12-31T15:28:40.174Z,100013.14
2022-12-31T15:31:19.642Z,100012.48
2022-12-31T15:33:59.621Z,100003.58
2022-12-31T15:36:31.374Z,99997.79
2022-12-31T15:39:37.033Z,99996.48
2022-12-31T15:42:38.133Z,100000.41
2022-12-31T15:45:19.141Z,100001.55
2022-12-31T15:47:54.141Z,99996.20
2022-12-31T15:50:25.802Z,99992.76
2022-12-31T15:52:58.199Z,99991.72
2022-12-31T15:55:33.387Z,99993.36
2022-12-31T15:58:06.391Z,99995.48
2022-12-31T16:00:56.201Z,99990.45
2022-12-31T16:03:28.115Z,100000.63
2022-12-31T16:06:01.298Z,99998.65
2022-12-31T16:08:34.541Z,100003.52
2022-12-31T16:11:07.616Z,100003.83
2022-12-31T16:13:42.162Z,100000.23
2022-12-31T16:16:22.638Z,100000.72
2022-12-31T16:18:53.689Z,100010.19
2022-12-31T16:21:33.242Z,100013.14
2022-12-31T16:24:05.458Z,100018.89
2022-12-31T16:26:44.511Z,100024.41
2022-12-31T16:29:17.092Z,100026.65
2022-12-31T16:31:49.079Z,100029.11
2022-12-31T16:34:22.185Z,100026.76
2022-12-31T16:37:03.885Z,100022.64
2022-12-31T16:39:36.507Z,100020.13
2022-12-31T16:42:18.791Z,100024.08
2022-12-31T16:44:49.898Z,100027.05
2022-12-31T16:47:23.580Z,100030.21
2022-12-31T16:50:00.329Z,100023.16
2022-12-31T16:52:34.195Z,100015.10
2022-12-31T16:55:09.694Z,100015.15
2022-12-31T16:57:41.496Z,100019.42
2022-12-31T17:00:18.548Z,100022.05
2022-12-31T17:02:59.267Z,100028.18
2022-12-31T17:05:30.328Z,100027.92
2022-12-31T17:08:23.403Z,100024.25
2022-12-31T17:10:56.009Z,100024.25
2022-12-31T17:13:30.694Z,100029.77
2022-12-31T17:16:02.574Z,100028.94
2022-12-31T17:18:39.150Z,100025.52
2022-12-31T17:21:11.331Z,100015.89
2022-12-31T17:23:43.923Z,100023.10
2022-12-31T17:26:15.780Z,100016.16
2022-12-31T17:28:48.279Z,100027.10
2022-12-31T17:31:30.756Z,100039.08
2022-12-31T17:34:20.028Z,100039.30
2022-12-31T17:37:16.064Z,100037.21
2022-12-31T17:39:50.853Z,100041.32
2022-12-31T17:42:28.751Z,100044.61
2022-12-31T17:45:01.972Z,100048.00
2022-12-31T17:47:40.552Z,100045.73
2022-12-31T17:50:23.228Z,100060.00
2022-12-31T17:52:56.495Z,100060.44
2022-12-31T17:55:28.647Z,100058.30
2022-12-31T17:58:02.914Z,100055.13
2022-12-31T18:00:34.059Z,100060.06
2022-12-31T18:03:04.608Z,100053.06
2022-12-31T18:05:35.033Z,100051.91
2022-12-31T18:08:06.330Z,100060.71
2022-12-31T18:10:39.198Z,100069.19
2022-12-31T18:13:17.861Z,100067.95
2022-12-31T18:15:46.930Z,100062.59
2022-12-31T18:18:25.300Z,100068.55
2022-12-31T18:20:59.157Z,100074.83
2022-12-31T18:23:31.597Z,100076.27
2022-12-31T18:26:02.237Z,100078.65
2022-12-31T18:28:32.409Z,100069.67
2022-12-31T18:31:03.247Z,100070.05
2022-12-31T18:33:33.455Z,100066.80
2022-12-31T18:36:09.242Z,100061.38
2022-12-31T18:38:40.445Z,100057.16
2022-12-31T18:41:17.966Z,100053.09
2022-12-31T18:43:49.102Z,100062.00
2022-12-31T18:46:22.527Z,100065.69
2022-12-31T18:48:52.939Z,100066.20
2022-12-31T18:51:31.260Z,100058.02
2022-12-31T18:54:04.233Z,100056.83
2022-12-31T18:56:34.667Z,100070.02
2022-12-31T18:59:05.160Z,100062.88
2022-12-31T19:01:37.742Z,100061.14
2022-12-31T19:04:13.611Z,100068.52
2022-12-31T19:06:44.781Z,100072.30
2022-12-31T19:09:43.434Z,100071.48
2022-12-31T19:12:10.231Z,100078.65
2022-12-31T19:14:40.458Z,100080.29
2022-12-31T19:17:10.686Z,100085.27
2022-12-31T19:19:40.838Z,100089.33
2022-12-31T19:22:15.757Z,100087.89
2022-12-31T19:24:46.239Z,100087.70
2022-12-31T19:27:16.886Z,100092.73
2022-12-31T19:29:46.928Z,100097.27
2022-12-31T19:32:17.623Z,100092.23
2022-12-31T19:34:47.653Z,100090.42
2022-12-31T19:37:18.415Z,100093.23
2022-12-31T19:39:48.837Z,100098.48
2022-12-31T19:42:19.377Z,100103.52
2022-12-31T19:44:49.813Z,100106.05
2022-12-31T19:47:19.918Z,100106.77
2022-12-31T19:49:49.933Z,100105.56
2022-12-31T19:52:20.535Z,100103.66
2022-12-31T19:54:51.426Z,100102.80
2022-12-31T19:57:21.812Z,100097.02
2022-12-31T19:59:52.129Z,100099.20
2022-12-31T20:02:22.479Z,100099.63
2022-12-31T20:04:52.943Z,100098.09
2022-12-31T20:07:27.080Z,100100.50
2022-12-31T20:09:58.181Z,100105.86
2022-12-31T20:12:28.917Z,100102.52
2022-12-31T20:14:59.294Z,100099.69
2022-12-31T20:17:29.924Z,100101.70
2022-12-31T20:20:00.101Z,100100.23
2022-12-31T20:22:30.561Z,100090.92
2022-12-31T20:25:00.584Z,100088.30
2022-12-31T20:27:30.768Z,100085.17
2022-12-31T20:30:00.879Z,100084.02
2022-12-31T20:32:31.531Z,100088.09
2022-12-31T20:35:03.558Z,100098.70
2022-12-31T20:37:33.758Z,100099.73
2022-12-31T20:40:05.148Z,100097.79
2022-12-31T20:42:37.016Z,100101.11
2022-12-31T20:45:10.759Z,100105.11
2022-12-31T20:47:41.239Z,100114.04
2022-12-31T20:50:12.675Z,100110.58
2022-12-31T20:52:43.446Z,100112.34
2022-12-31T20:55:14.061Z,100112.38
2022-12-31T20:57:44.667Z,100109.21
2022-12-31T21:00:16.540Z,100109.59
2022-12-31T21:02:55.530Z,100118.46
2022-12-31T21:05:29.217Z,100122.58
2022-12-31T21:07:59.639Z,100116.98
2022-12-31T21:10:30.072Z,100112.06
2022-12-31T21:13:00.368Z,100109.16
2022-12-31T21:15:30.788Z,100114.31
2022-12-31T21:18:01.026Z,100118.86
2022-12-31T21:20:31.303Z,100122.05
2022-12-31T21:23:01.587Z,100123.67
2022-12-31T21:25:31.565Z,100121.66
2022-12-31T21:28:02.145Z,100117.39
2022-12-31T21:30:32.694Z,100118.42
2022-12-31T21:33:02.903Z,100122.04
2022-12-31T21:35:43.741Z,100115.31
2022-12-31T21:38:19.510Z,100114.39
2022-12-31T21:40:50.000Z,100113.85
2022-12-31T21:43:20.296Z,100112.92
2022-12-31T21:46:01.857Z,100116.74
2022-12-31T21:48:33.177Z,100118.00
2022-12-31T21:51:09.686Z,100113.48
2022-12-31T21:53:40.442Z,100108.55
2022-12-31T21:56:14.046Z,100111.55
2022-12-31T21:58:45.881Z,100107.95
2022-12-31T22:01:40.169Z,100105.38
2022-12-31T22:04:35.266Z,100108.11
2022-12-31T22:07:01.527Z,100112.88
2022-12-31T22:09:32.208Z,100113.58
2022-12-31T22:12:02.728Z,100109.27
2022-12-31T22:14:33.027Z,100103.04
2022-12-31T22:17:03.323Z,100106.05
2022-12-31T22:19:54.495Z,100112.45
2022-12-31T22:22:24.365Z,100106.27
2022-12-31T22:24:54.367Z,100106.86
2022-12-31T22:27:28.216Z,100110.04
2022-12-31T22:29:59.871Z,100109.44
2022-12-31T22:32:33.387Z,100098.88
2022-12-31T22:35:03.928Z,100099.91
2022-12-31T22:37:56.441Z,100106.68
2022-12-31T22:40:25.422Z,100102.80
2022-12-31T22:42:56.349Z,100094.42
2022-12-31T22:45:26.783Z,100094.48
2022-12-31T22:47:57.648Z,100098.13
2022-12-31T22:50:28.037Z,100108.04
2022-12-31T22:52:57.951Z,100111.66
2022-12-31T22:55:28.682Z,100120.84
2022-12-31T22:57:58.765Z,100117.89
2022-12-31T23:00:39.685Z,100113.95
2022-12-31T23:03:10.209Z,100107.56
2022-12-31T23:05:40.844Z,100110.98
2022-12-31T23:08:20.516Z,100114.33
2022-12-31T23:11:00.433Z,100106.80
2022-12-31T23:13:57.923Z,100111.27
2022-12-31T23:16:48.064Z,100113.30
2022-12-31T23:19:36.518Z,100122.00
2022-12-31T23:22:23.998Z,100120.46
2022-12-31T23:24:54.613Z,100116.98
2022-12-31T23:27:25.212Z,100106.91
2022-12-31T23:29:55.482Z,100103.08
2022-12-31T23:32:25.551Z,100104.61
2022-12-31T23:34:55.451Z,100102.52
2022-12-31T23:37:25.635Z,100101.15
2022-12-31T23:39:55.664Z,100107.27
2022-12-31T23:42:25.753Z,100115.04
2022-12-31T23:44:55.965Z,100113.85
2022-12-31T23:47:26.284Z,100119.48
2022-12-31T23:49:56.444Z,100110.88
2022-12-31T23:52:26.603Z,100103.77
2022-12-31T23:54:56.760Z,100102.90
2022-12-31T23:57:27.163Z,100106.78
2022-12-31T23:59:57.272Z,100113.25
